Time;durP1;ratioP1;P1;durP2;ratioP2;P2;SDS_P1;SDS_P2;PMS_P1;PMS_P2;Temp;Humidity;BMP_temperature;BMP_pressure;BME280_temperature;BME280_humidity;BME280_pressure;Samples;Min_cycle;Max_cycle;Signal;HPM_P1;HPM_P2
2021/04/22 00:02:20;;;;;;;15.57;2.00;;;;;;;6.37;69.69;101783.25;5063665;28;20497;-75
2021/04/22 00:04:46;;;;;;;11.98;2.08;;;;;;;6.35;70.33;101783.31;5070155;28;20024;-76
2021/04/22 00:07:11;;;;;;;21.13;2.28;;;;;;;6.34;70.73;101780.69;5066902;28;20408;-75
2021/04/22 00:09:38;;;;;;;14.85;2.55;;;;;;;6.36;70.73;101787.72;5066213;28;20068;-76
2021/04/22 00:12:07;;;;;;;19.13;2.17;;;;;;;6.29;70.99;101780.84;5063771;28;20495;-76
2021/04/22 00:14:33;;;;;;;16.60;2.88;;;;;;;6.27;70.97;101777.31;5068778;28;20499;-75
2021/04/22 00:16:58;;;;;;;23.98;3.40;;;;;;;6.34;70.53;101778.03;5067053;28;20025;-76
2021/04/22 00:19:23;;;;;;;12.77;2.58;;;;;;;6.30;70.58;101782.56;5073105;28;20032;-77
2021/04/22 00:21:49;;;;;;;23.65;3.00;;;;;;;6.22;70.84;101771.25;5065309;28;20044;-78
2021/04/22 00:24:14;;;;;;;13.70;1.60;;;;;;;6.17;71.47;101786.53;5071165;28;20566;-76
2021/04/22 00:26:40;;;;;;;17.65;2.47;;;;;;;6.12;71.69;101783.09;5067119;28;20124;-76
2021/04/22 00:29:05;;;;;;;19.63;2.65;;;;;;;6.05;71.80;101778.84;5064351;28;20040;-76
2021/04/22 00:31:31;;;;;;;23.98;3.40;;;;;;;6.00;72.06;101780.78;5066497;28;20060;-76
2021/04/22 00:33:56;;;;;;;25.38;3.78;;;;;;;6.01;71.34;101790.53;5070408;28;20115;-76
2021/04/22 00:36:21;;;;;;;16.67;2.25;;;;;;;6.00;71.34;101799.44;5066004;28;20500;-76
2021/04/22 00:38:47;;;;;;;25.35;3.03;;;;;;;5.90;71.99;101788.19;5071474;28;20100;-75
2021/04/22 00:41:13;;;;;;;17.08;1.98;;;;;;;5.90;71.41;101790.84;5064894;28;20050;-77
2021/04/22 00:43:39;;;;;;;18.75;3.85;;;;;;;5.84;71.91;101796.31;5066551;28;20040;-76
2021/04/22 00:46:05;;;;;;;16.58;2.53;;;;;;;5.85;72.20;101799.84;5066629;28;20033;-77
2021/04/22 00:48:30;;;;;;;21.88;2.53;;;;;;;5.83;72.02;101802.56;5067528;28;20032;-76
2021/04/22 00:51:05;;;;;;;12.48;1.92;;;;;;;5.82;72.49;101802.59;5070796;28;20170;-76
2021/04/22 00:53:34;;;;;;;18.02;2.60;;;;;;;5.84;72.54;101803.44;5071674;28;20024;-76
2021/04/22 00:56:00;;;;;;;16.42;2.15;;;;;;;5.79;73.21;101805.34;5067321;28;20029;-76
2021/04/22 00:58:26;;;;;;;16.27;2.65;;;;;;;5.74;73.36;101807.28;5071565;28;20043;-76
2021/04/22 01:00:56;;;;;;;15.43;2.53;;;;;;;5.70;74.06;101818.00;5069898;28;20029;-76
2021/04/22 01:03:23;;;;;;;19.17;2.30;;;;;;;5.69;74.21;101815.38;5070588;28;20443;-77
2021/04/22 01:05:53;;;;;;;14.88;3.33;;;;;;;5.63;74.58;101810.19;5066738;28;20024;-75
2021/04/22 01:08:18;;;;;;;21.00;2.75;;;;;;;5.60;74.82;101816.50;5063775;28;20503;-75
2021/04/22 01:10:44;;;;;;;14.70;2.30;;;;;;;5.58;74.98;101812.13;5069809;28;20032;-76
2021/04/22 01:13:09;;;;;;;9.73;2.38;;;;;;;5.56;75.25;101814.81;5063893;28;20044;-75
2021/04/22 01:15:36;;;;;;;14.25;2.28;;;;;;;5.54;75.35;101811.34;5060956;28;20037;-76
2021/04/22 01:18:04;;;;;;;11.73;2.22;;;;;;;5.50;75.38;101808.75;5068619;28;20047;-75
2021/04/22 01:20:45;;;;;;;12.07;1.92;;;;;;;5.43;75.68;101810.72;5061071;28;20469;-75
2021/04/22 01:23:12;;;;;;;19.65;2.40;;;;;;;5.37;75.88;101813.53;5071266;28;20032;-76
2021/04/22 01:25:49;;;;;;;17.25;2.40;;;;;;;5.28;76.36;101814.66;5066268;28;20421;-75
2021/04/22 01:28:17;;;;;;;24.00;2.72;;;;;;;5.23;76.56;101803.25;5063568;28;20032;-75
2021/04/22 01:30:48;;;;;;;16.75;2.03;;;;;;;5.17;76.86;101807.84;5053152;28;20507;-76
2021/04/22 01:33:17;;;;;;;14.35;2.38;;;;;;;5.16;76.82;101814.09;5069602;28;20426;-76
2021/04/22 01:35:47;;;;;;;10.63;2.20;;;;;;;5.12;77.15;101818.59;5067951;28;20427;-76
2021/04/22 01:38:13;;;;;;;21.25;2.38;;;;;;;5.10;77.42;101830.19;5070281;28;20508;-77
2021/04/22 01:40:39;;;;;;;17.50;2.10;;;;;;;5.08;77.34;101830.22;5070714;28;20401;-76
2021/04/22 01:43:05;;;;;;;12.80;2.50;;;;;;;5.06;77.37;101829.38;5071663;28;20499;-76
2021/04/22 01:45:32;;;;;;;24.50;4.18;;;;;;;5.05;77.57;101829.44;5061138;28;20029;-76
2021/04/22 01:47:57;;;;;;;10.27;2.65;;;;;;;5.02;77.54;101833.03;5062342;28;20398;-76
2021/04/22 01:50:26;;;;;;;17.15;2.78;;;;;;;5.01;77.49;101830.41;5074101;28;20043;-75
2021/04/22 01:52:52;;;;;;;18.48;3.03;;;;;;;5.00;77.77;101831.34;5069443;28;20090;-76
2021/04/22 01:55:42;;;;;;;18.70;2.13;;;;;;;4.92;78.18;101825.31;5065408;28;20057;-75
2021/04/22 01:58:12;;;;;;;15.32;2.28;;;;;;;4.90;78.32;101822.69;5072731;28;20420;-75
2021/04/22 02:00:43;;;;;;;13.85;2.40;;;;;;;4.89;78.46;101831.56;5071005;28;20031;-77
2021/04/22 02:03:09;;;;;;;22.95;3.60;;;;;;;4.83;78.65;101832.59;5065723;28;20036;-76
2021/04/22 02:05:36;;;;;;;23.17;2.88;;;;;;;4.74;79.16;101827.50;5070376;28;20067;-75
2021/04/22 02:08:03;;;;;;;10.30;2.42;;;;;;;4.69;79.46;101837.34;5068350;28;20048;-76
2021/04/22 02:10:28;;;;;;;19.02;3.88;;;;;;;4.66;79.66;101842.75;5069766;28;20024;-75
2021/04/22 02:12:54;;;;;;;21.77;2.75;;;;;;;4.61;79.84;101836.66;5063847;28;20492;-77
2021/04/22 02:15:23;;;;;;;16.98;3.08;;;;;;;4.55;80.25;101839.44;5068266;28;20115;-76
2021/04/22 02:17:48;;;;;;;15.07;2.45;;;;;;;4.56;80.53;101840.31;5066531;28;20072;-76
2021/04/22 02:20:16;;;;;;;15.40;2.88;;;;;;;4.52;80.62;101847.47;5073859;28;20062;-76
2021/04/22 02:22:42;;;;;;;20.42;2.58;;;;;;;4.50;80.88;101849.31;5069671;28;20035;-75
2021/04/22 02:25:10;;;;;;;17.77;2.53;;;;;;;4.50;80.78;101848.44;5064369;28;20119;-75
2021/04/22 02:27:37;;;;;;;17.38;3.00;;;;;;;4.42;81.29;101849.47;5062414;28;20047;-76
2021/04/22 02:30:10;;;;;;;20.17;2.67;;;;;;;4.36;81.22;101851.38;5067738;28;20493;-76
2021/04/22 02:32:35;;;;;;;21.17;3.03;;;;;;;4.28;81.86;101848.00;5062989;28;20071;-75
2021/04/22 02:35:01;;;;;;;21.88;2.50;;;;;;;4.23;82.21;101856.06;5049055;28;20060;-78
2021/04/22 02:37:26;;;;;;;15.73;2.88;;;;;;;4.22;82.22;101861.41;5054585;28;20044;-75
2021/04/22 02:39:52;;;;;;;17.95;2.78;;;;;;;4.23;82.26;101855.19;5067967;28;20063;-76
2021/04/22 02:42:17;;;;;;;17.60;2.70;;;;;;;4.18;82.29;101857.06;5062789;28;20060;-76
2021/04/22 02:44:42;;;;;;;15.30;2.90;;;;;;;4.11;82.56;101861.63;5064788;28;20060;-75
2021/04/22 02:47:08;;;;;;;20.67;2.50;;;;;;;4.05;82.96;101859.97;5064251;28;20044;-75
2021/04/22 02:49:34;;;;;;;15.43;2.10;;;;;;;4.00;83.26;101859.19;5066331;28;20132;-77
2021/04/22 02:51:59;;;;;;;18.67;3.40;;;;;;;3.94;83.73;101864.59;5067785;28;20123;-75
2021/04/22 02:54:24;;;;;;;17.08;2.83;;;;;;;3.88;83.75;101862.06;5069196;28;20036;-75
2021/04/22 02:56:50;;;;;;;15.95;2.28;;;;;;;3.89;83.89;101861.13;5067119;28;20131;-76
2021/04/22 02:59:15;;;;;;;10.43;2.40;;;;;;;3.87;83.72;101865.63;5067057;28;20400;-75
2021/04/22 03:01:41;;;;;;;21.83;2.72;;;;;;;3.83;83.94;101855.94;5064072;28;20032;-75
2021/04/22 03:04:06;;;;;;;14.60;2.60;;;;;;;3.78;84.35;101863.13;5065184;28;20564;-76
2021/04/22 03:06:32;;;;;;;18.65;2.55;;;;;;;3.79;84.42;101864.00;5060099;28;20578;-76
2021/04/22 03:08:57;;;;;;;19.77;2.55;;;;;;;3.78;84.42;101860.47;5066184;28;20025;-75
2021/04/22 03:11:23;;;;;;;19.23;3.10;;;;;;;3.77;84.46;101866.66;5066100;28;20028;-76
2021/04/22 03:13:48;;;;;;;26.25;2.88;;;;;;;3.76;84.51;101872.91;5064067;28;20042;-76
2021/04/22 03:16:13;;;;;;;14.20;2.85;;;;;;;3.75;84.37;101867.63;5069279;28;20033;-75
2021/04/22 03:18:39;;;;;;;22.50;3.33;;;;;;;3.72;84.33;101873.84;5068730;28;20029;-76
2021/04/22 03:21:04;;;;;;;16.38;2.70;;;;;;;3.71;84.38;101872.09;5066156;28;20032;-76
2021/04/22 03:23:30;;;;;;;17.30;4.72;;;;;;;3.69;84.43;101878.34;5069828;28;20032;-77
2021/04/22 03:25:55;;;;;;;17.70;2.97;;;;;;;3.67;84.58;101878.38;5064638;28;20032;-76
2021/04/22 03:28:21;;;;;;;17.50;3.30;;;;;;;3.65;84.53;101872.19;5069106;28;20085;-77
2021/04/22 03:30:46;;;;;;;19.95;3.10;;;;;;;3.60;85.04;101874.94;5062243;28;20082;-75
2021/04/22 03:33:12;;;;;;;7.47;2.20;;;;;;;3.57;85.25;101879.44;5069546;28;20066;-75
2021/04/22 03:35:37;;;;;;;19.13;2.60;;;;;;;3.52;85.46;101881.28;5066279;28;20035;-76
2021/04/22 03:38:03;;;;;;;17.83;2.70;;;;;;;3.49;85.59;101881.34;5067373;28;20033;-75
2021/04/22 03:40:29;;;;;;;20.33;2.90;;;;;;;3.50;85.56;101891.06;5065987;28;20039;-75
2021/04/22 03:42:55;;;;;;;19.23;4.47;;;;;;;3.48;85.62;101884.91;5065298;28;20119;-75
2021/04/22 03:45:23;;;;;;;17.25;2.72;;;;;;;3.48;85.77;101890.19;5067743;28;20521;-75
2021/04/22 03:47:48;;;;;;;31.40;4.22;;;;;;;3.48;85.74;101892.84;5068088;28;20056;-75
2021/04/22 03:50:16;;;;;;;16.75;3.50;;;;;;;3.45;85.78;101890.28;5070088;28;20075;-77
2021/04/22 03:52:43;;;;;;;15.85;2.65;;;;;;;3.42;85.89;101895.59;5072549;28;20234;-75
2021/04/22 03:55:10;;;;;;;15.70;3.00;;;;;;;3.40;85.99;101887.66;5067132;28;20037;-75
2021/04/22 03:57:36;;;;;;;19.25;3.63;;;;;;;3.36;86.17;101891.28;5066251;28;20033;-75
2021/04/22 04:00:05;;;;;;;19.77;3.30;;;;;;;3.36;86.48;101906.31;5070897;28;20538;-75
2021/04/22 04:02:32;;;;;;;22.67;3.65;;;;;;;3.32;86.84;101896.66;5052963;28;20036;-75
2021/04/22 04:04:57;;;;;;;18.02;3.55;;;;;;;3.30;87.11;101894.03;5069325;28;20033;-75
2021/04/22 04:07:23;;;;;;;16.80;3.55;;;;;;;3.25;87.56;101891.47;5070799;28;20033;-75
2021/04/22 04:09:48;;;;;;;22.02;3.90;;;;;;;3.19;87.98;101891.56;5073012;28;20084;-75
2021/04/22 04:12:14;;;;;;;18.45;3.05;;;;;;;3.15;88.30;101878.34;5068769;28;20032;-75
2021/04/22 04:14:39;;;;;;;15.38;2.88;;;;;;;3.10;88.48;101883.72;5071148;28;20128;-75
2021/04/22 04:17:05;;;;;;;22.65;4.95;;;;;;;3.05;88.70;101890.88;5065162;28;20032;-75
2021/04/22 04:19:30;;;;;;;16.05;2.78;;;;;;;3.03;88.96;101897.97;5072110;28;20025;-75
2021/04/22 04:21:56;;;;;;;25.63;4.07;;;;;;;3.03;88.84;101886.47;5068893;28;20036;-75
2021/04/22 04:24:21;;;;;;;17.10;3.63;;;;;;;3.03;88.79;101900.63;5054843;28;20461;-77
2021/04/22 04:26:47;;;;;;;17.88;3.70;;;;;;;3.02;88.76;101896.25;5068726;28;20094;-76
2021/04/22 04:29:12;;;;;;;19.83;3.55;;;;;;;3.01;88.75;101897.13;5070218;28;20078;-75
2021/04/22 04:31:38;;;;;;;18.05;3.33;;;;;;;3.02;88.55;101900.66;5068764;28;20381;-75
2021/04/22 04:34:04;;;;;;;23.80;4.15;;;;;;;3.03;88.35;101900.63;5071248;28;20118;-76
2021/04/22 04:36:30;;;;;;;16.02;3.63;;;;;;;2.99;88.70;101906.88;5066474;28;20047;-75
2021/04/22 04:38:55;;;;;;;17.80;3.58;;;;;;;2.92;88.95;101910.50;5067393;28;20539;-75
2021/04/22 04:41:21;;;;;;;16.80;3.97;;;;;;;2.91;89.32;101913.19;5068485;28;20345;-74
2021/04/22 04:43:46;;;;;;;22.10;4.10;;;;;;;2.92;89.50;101913.16;5069445;28;20037;-75
2021/04/22 04:46:17;;;;;;;24.58;4.03;;;;;;;2.91;89.62;101908.75;5058268;28;20097;-76
2021/04/22 04:48:44;;;;;;;20.63;4.10;;;;;;;2.95;89.69;101913.13;5062860;28;20036;-75
2021/04/22 04:51:10;;;;;;;30.20;3.97;;;;;;;2.95;89.96;101909.59;5071456;28;20055;-75
2021/04/22 04:53:35;;;;;;;30.45;3.75;;;;;;;2.95;90.33;101914.91;5066574;28;20025;-77
2021/04/22 04:56:01;;;;;;;22.27;3.55;;;;;;;3.00;90.38;101913.94;5068864;28;20103;-78
2021/04/22 04:58:26;;;;;;;26.90;4.38;;;;;;;3.00;90.34;101921.03;5069269;28;20047;-75
2021/04/22 05:00:52;;;;;;;22.23;3.95;;;;;;;3.02;90.63;101927.19;5067194;28;20405;-75
2021/04/22 05:03:17;;;;;;;18.05;3.30;;;;;;;3.03;90.86;101934.22;5070259;28;20032;-75
2021/04/22 05:05:42;;;;;;;34.75;4.65;;;;;;;3.08;91.13;101933.28;5065294;28;20037;-75
2021/04/22 05:08:08;;;;;;;23.67;4.65;;;;;;;3.15;91.40;101940.22;5046851;28;20036;-75
2021/04/22 05:10:33;;;;;;;22.33;4.75;;;;;;;3.14;91.76;101937.63;5065926;28;20029;-75
2021/04/22 05:12:59;;;;;;;20.75;4.38;;;;;;;3.19;91.99;101941.09;5052875;28;20077;-75
2021/04/22 05:15:24;;;;;;;24.63;4.70;;;;;;;3.23;92.14;101943.66;5060179;28;20032;-75
2021/04/22 05:17:50;;;;;;;23.95;5.35;;;;;;;3.34;92.45;101945.28;5069877;28;20085;-75
2021/04/22 05:20:16;;;;;;;33.05;5.03;;;;;;;3.40;92.53;101942.53;5069274;28;20032;-75
2021/04/22 05:22:41;;;;;;;24.52;5.07;;;;;;;3.50;92.66;101937.06;5060610;28;20128;-74
2021/04/22 05:25:07;;;;;;;29.05;5.25;;;;;;;3.56;92.46;101942.28;5069961;28;20167;-75
2021/04/22 05:27:33;;;;;;;41.45;5.50;;;;;;;3.74;92.12;101946.41;5054103;28;20408;-75
2021/04/22 05:29:58;;;;;;;23.13;4.63;;;;;;;3.88;91.57;101948.84;5065058;28;20036;-75
2021/04/22 05:32:24;;;;;;;25.50;5.13;;;;;;;3.92;91.16;101943.44;5068645;28;20036;-76
2021/04/22 05:34:49;;;;;;;29.88;5.13;;;;;;;4.10;90.49;101942.22;5070566;28;20035;-78
2021/04/22 05:37:15;;;;;;;27.23;6.05;;;;;;;4.12;90.25;101939.56;5067989;28;20021;-76
2021/04/22 05:39:40;;;;;;;25.70;6.43;;;;;;;4.22;90.10;101949.97;5068407;28;20386;-76
2021/04/22 05:42:06;;;;;;;29.20;5.63;;;;;;;4.34;89.25;101948.88;5066128;28;20498;-76
2021/04/22 05:44:32;;;;;;;23.48;5.05;;;;;;;4.46;88.97;101948.63;5064086;28;20040;-76
2021/04/22 05:46:57;;;;;;;30.30;6.85;;;;;;;4.64;88.32;101948.25;5062031;28;20054;-76
2021/04/22 05:49:22;;;;;;;29.40;5.57;;;;;;;4.81;86.81;101954.09;5062497;28;20072;-76
2021/04/22 05:51:48;;;;;;;40.35;5.78;;;;;;;4.90;85.97;101961.03;5066312;28;20032;-76
2021/04/22 05:54:14;;;;;;;31.00;5.25;;;;;;;4.97;85.36;101967.09;5065720;28;20428;-76
2021/04/22 05:56:39;;;;;;;33.05;5.65;;;;;;;5.17;84.13;101971.09;5047318;28;20036;-76
2021/04/22 05:59:05;;;;;;;31.83;6.28;;;;;;;5.47;83.26;101974.84;5068017;28;20025;-77
2021/04/22 06:01:31;;;;;;;25.13;7.03;;;;;;;5.67;82.03;101969.94;5052394;28;20549;-76
2021/04/22 06:03:57;;;;;;;29.95;6.45;;;;;;;5.86;81.04;101974.81;5066618;28;20720;-75
2021/04/22 06:06:22;;;;;;;28.50;5.50;;;;;;;6.09;80.67;101980.44;5068355;28;20044;-76
2021/04/22 06:08:48;;;;;;;23.85;6.03;;;;;;;6.32;79.36;101983.38;5065183;28;20374;-76
2021/04/22 06:11:14;;;;;;;28.25;5.47;;;;;;;6.29;78.28;101988.81;5061217;28;20068;-76
2021/04/22 06:13:39;;;;;;;29.77;5.15;;;;;;;6.46;77.84;101997.25;5062270;28;20060;-77
2021/04/22 06:16:05;;;;;;;24.67;5.13;;;;;;;6.56;77.75;101996.97;5066426;28;20040;-76
2021/04/22 06:18:31;;;;;;;35.85;7.35;;;;;;;6.57;77.92;101996.06;5069068;28;20039;-76
2021/04/22 06:20:56;;;;;;;26.05;5.15;;;;;;;6.59;78.21;101996.91;5062960;28;20107;-76
2021/04/22 06:23:24;;;;;;;24.98;5.75;;;;;;;6.52;76.50;102000.66;5050480;28;20110;-76
2021/04/22 06:25:49;;;;;;;33.85;6.35;;;;;;;6.48;77.39;102008.72;5048604;28;20078;-79
2021/04/22 06:28:15;;;;;;;29.30;5.00;;;;;;;6.38;76.94;102004.56;5057987;28;20041;-77
2021/04/22 06:30:40;;;;;;;32.08;6.15;;;;;;;6.40;77.00;102013.41;5064850;28;20035;-76
2021/04/22 06:33:06;;;;;;;26.00;5.65;;;;;;;6.26;78.38;102014.66;5071218;28;20045;-76
2021/04/22 06:35:31;;;;;;;27.55;6.63;;;;;;;6.35;77.69;102020.66;5068552;28;20034;-76
2021/04/22 06:37:57;;;;;;;28.35;5.70;;;;;;;6.50;76.14;102025.56;5065539;28;20028;-76
2021/04/22 06:40:24;;;;;;;28.05;6.45;;;;;;;6.48;76.75;102027.38;5048441;28;20089;-76
2021/04/22 06:42:50;;;;;;;28.00;5.57;;;;;;;6.66;77.04;102031.38;5063912;28;20064;-76
2021/04/22 06:45:16;;;;;;;24.23;5.70;;;;;;;6.87;76.26;102032.56;5066298;28;20871;-76
2021/04/22 06:47:43;;;;;;;22.13;5.82;;;;;;;6.99;74.68;102031.34;5066814;28;20381;-76
2021/04/22 06:50:12;;;;;;;20.08;5.05;;;;;;;7.15;73.88;102038.88;5067650;28;20552;-79
2021/04/22 06:52:38;;;;;;;32.88;5.47;;;;;;;7.30;71.97;102034.88;5065290;28;20036;-76
2021/04/22 06:55:13;;;;;;;33.42;5.57;;;;;;;7.56;71.27;102044.78;5069301;28;20111;-76
2021/04/22 06:57:39;;;;;;;42.38;9.07;;;;;;;7.76;69.57;102044.16;5067489;28;20035;-75
2021/04/22 07:00:14;;;;;;;27.50;5.40;;;;;;;8.18;67.59;102047.22;5067309;28;20032;-75
2021/04/22 07:02:39;;;;;;;19.88;4.68;;;;;;;8.84;65.42;102047.59;5065956;28;20044;-76
2021/04/22 07:05:06;;;;;;;25.80;3.80;;;;;;;9.59;61.78;102051.03;5068079;28;20085;-76
2021/04/22 07:07:32;;;;;;;15.05;3.90;;;;;;;10.27;58.60;102058.13;5069224;28;20119;-77
2021/04/22 07:09:57;;;;;;;17.77;4.85;;;;;;;10.79;56.20;102054.09;5067651;28;20107;-77
2021/04/22 07:12:22;;;;;;;28.58;4.35;;;;;;;11.23;53.19;102064.69;5065721;28;20055;-76
2021/04/22 07:14:48;;;;;;;19.67;4.30;;;;;;;11.51;52.89;102064.25;5067022;28;20036;-77
2021/04/22 07:17:13;;;;;;;17.50;3.53;;;;;;;11.89;52.63;102066.03;5065622;28;20032;-76
2021/04/22 07:19:39;;;;;;;19.83;3.20;;;;;;;12.24;49.65;102077.75;5063270;28;20108;-76
2021/04/22 07:22:05;;;;;;;17.52;4.43;;;;;;;12.40;48.88;102073.38;5066809;28;20186;-76
2021/04/22 07:24:31;;;;;;;12.48;3.13;;;;;;;12.24;47.15;102072.38;5063403;28;20039;-76
2021/04/22 07:26:57;;;;;;;14.18;2.95;;;;;;;12.41;47.45;102082.28;5067539;28;20028;-76
2021/04/22 07:29:23;;;;;;;11.90;3.20;;;;;;;12.65;46.27;102083.75;5048084;28;20035;-76
2021/04/22 07:31:49;;;;;;;17.02;3.53;;;;;;;13.00;44.77;102091.81;5060757;28;20032;-77
2021/04/22 07:34:14;;;;;;;17.83;2.65;;;;;;;13.11;44.18;102086.75;5082359;28;20036;-78
2021/04/22 07:36:40;;;;;;;17.70;2.67;;;;;;;13.16;44.84;102090.09;5066557;28;20135;-77
2021/04/22 07:39:06;;;;;;;16.83;3.55;;;;;;;13.36;45.63;102092.59;5061867;28;20456;-78
2021/04/22 07:41:31;;;;;;;14.55;2.30;;;;;;;13.47;42.41;102094.69;5064268;28;20024;-77
2021/04/22 07:43:57;;;;;;;15.55;3.20;;;;;;;12.89;42.88;102095.97;5065319;28;20028;-78
2021/04/22 07:46:22;;;;;;;24.75;3.55;;;;;;;12.42;43.73;102102.88;5059819;28;20444;-77
2021/04/22 07:48:48;;;;;;;12.27;2.60;;;;;;;12.63;42.91;102104.50;5065092;28;20051;-77
2021/04/22 07:51:13;;;;;;;16.70;2.25;;;;;;;12.85;43.34;102097.06;5066690;28;20544;-78
2021/04/22 07:53:39;;;;;;;14.30;3.47;;;;;;;12.76;44.12;102097.56;5066432;28;20508;-77
2021/04/22 07:56:04;;;;;;;16.10;2.60;;;;;;;12.04;45.87;102097.56;5059820;28;20065;-77
2021/04/22 07:58:31;;;;;;;20.25;2.63;;;;;;;11.54;46.93;102101.78;5067349;28;20043;-77
2021/04/22 08:00:58;;;;;;;14.25;2.70;;;;;;;11.19;46.23;102108.75;5065738;28;20115;-77
2021/04/22 08:03:24;;;;;;;11.02;2.03;;;;;;;10.85;46.44;102109.38;5064690;28;20044;-77
2021/04/22 08:05:55;;;;;;;15.00;2.85;;;;;;;11.57;45.86;102105.19;5067612;28;20032;-77
2021/04/22 08:08:20;;;;;;;15.93;2.95;;;;;;;12.27;44.41;102103.66;5066687;28;20396;-77
2021/04/22 08:10:47;;;;;;;17.58;2.30;;;;;;;12.28;42.72;102110.81;5067834;28;20039;-79
2021/04/22 08:13:16;;;;;;;12.73;2.95;;;;;;;11.93;45.42;102099.91;5060212;28;20064;-77
2021/04/22 08:15:44;;;;;;;12.18;2.50;;;;;;;12.38;43.71;102101.31;5063853;28;20043;-76
2021/04/22 08:18:10;;;;;;;21.88;2.70;;;;;;;11.98;44.01;102103.25;5064010;28;20040;-77
2021/04/22 08:20:36;;;;;;;15.70;2.83;;;;;;;11.69;46.27;102101.03;5066814;28;20116;-77
2021/04/22 08:23:04;;;;;;;18.77;3.13;;;;;;;11.98;44.32;102105.94;5064556;28;20040;-77
2021/04/22 08:25:51;;;;;;;15.60;2.95;;;;;;;11.84;44.89;102100.38;5065500;28;20035;-77
2021/04/22 08:28:18;;;;;;;13.32;2.40;;;;;;;11.99;44.07;102105.00;5060473;28;20055;-78
2021/04/22 08:30:54;;;;;;;17.00;2.92;;;;;;;13.23;43.33;102097.78;5065552;28;20025;-77
2021/04/22 08:33:22;;;;;;;25.08;3.10;;;;;;;13.57;40.56;102106.75;5067000;28;20028;-77
2021/04/22 08:35:48;;;;;;;12.70;2.42;;;;;;;13.55;39.98;102108.66;5067285;28;20044;-77
2021/04/22 08:38:13;;;;;;;19.20;2.72;;;;;;;13.38;41.25;102106.00;5068630;28;20150;-78
2021/04/22 08:40:40;;;;;;;18.13;2.55;;;;;;;13.31;42.83;102098.25;5064579;28;20106;-77
2021/04/22 08:43:07;;;;;;;16.48;3.53;;;;;;;12.83;41.71;102098.97;5073167;28;20120;-76
2021/04/22 08:45:33;;;;;;;12.05;2.20;;;;;;;12.44;42.71;102101.88;5068863;28;20044;-77
2021/04/22 08:48:00;;;;;;;10.45;2.72;;;;;;;12.36;43.68;102105.88;5067316;28;20097;-77
2021/04/22 08:50:28;;;;;;;14.43;2.72;;;;;;;12.64;41.86;102111.66;5070128;28;20060;-77
2021/04/22 08:52:56;;;;;;;9.43;2.63;;;;;;;12.54;43.20;102104.97;5062262;28;20039;-78
2021/04/22 08:55:24;;;;;;;13.30;2.60;;;;;;;12.06;43.36;102111.84;5070198;28;20495;-77
2021/04/22 08:57:50;;;;;;;13.40;2.03;;;;;;;12.42;45.23;102108.28;5051060;28;20111;-77
2021/04/22 09:00:19;;;;;;;20.17;3.40;;;;;;;12.69;43.63;102114.97;5068294;28;20596;-76
2021/04/22 09:02:45;;;;;;;16.05;2.17;;;;;;;13.28;43.63;102117.28;5066042;28;20392;-77
2021/04/22 09:05:12;;;;;;;12.43;2.92;;;;;;;13.29;41.30;102123.53;5069771;28;20115;-78
2021/04/22 09:07:38;;;;;;;16.00;2.70;;;;;;;13.12;40.32;102120.84;5063537;28;20048;-77
2021/04/22 09:10:04;;;;;;;13.35;2.15;;;;;;;13.47;39.92;102116.28;5071596;28;20036;-77
2021/04/22 09:12:30;;;;;;;9.98;2.67;;;;;;;13.60;40.48;102118.22;5072549;28;20020;-77
2021/04/22 09:15:03;;;;;;;12.68;2.13;;;;;;;13.66;42.40;102117.91;5049568;28;20085;-78
2021/04/22 09:17:28;;;;;;;10.90;2.58;;;;;;;13.14;41.12;102114.47;5066949;28;20043;-78
2021/04/22 09:19:55;;;;;;;9.93;1.83;;;;;;;12.41;43.15;102118.16;5069704;28;20033;-77
2021/04/22 09:22:32;;;;;;;11.07;2.75;;;;;;;12.20;43.87;102126.44;5069798;28;20033;-77
2021/04/22 09:24:58;;;;;;;13.50;3.17;;;;;;;12.48;45.58;102118.75;5068110;28;20029;-77
2021/04/22 09:27:23;;;;;;;16.83;3.35;;;;;;;13.30;40.96;102111.81;5067683;28;20082;-77
2021/04/22 09:29:51;;;;;;;12.52;2.78;;;;;;;13.54;39.68;102112.31;5072145;28;20427;-77
2021/04/22 09:32:21;;;;;;;11.48;3.25;;;;;;;13.85;39.12;102106.97;5053742;28;20032;-79
2021/04/22 09:34:50;;;;;;;16.63;3.60;;;;;;;14.10;40.54;102112.72;5067797;28;20476;-79
2021/04/22 09:37:17;;;;;;;13.55;2.70;;;;;;;14.25;37.59;102105.59;5061412;28;20071;-78
2021/04/22 09:39:42;;;;;;;15.15;3.30;;;;;;;13.94;37.36;102110.97;5070663;28;20032;-78
2021/04/22 09:42:10;;;;;;;11.35;2.30;;;;;;;13.89;38.67;102108.50;5064737;28;20086;-79
2021/04/22 09:44:37;;;;;;;14.05;3.15;;;;;;;13.59;41.47;102107.53;5069713;28;20519;-78
2021/04/22 09:47:10;;;;;;;15.52;3.20;;;;;;;13.32;41.67;102108.09;5071757;28;20484;-77
2021/04/22 09:49:56;;;;;;;15.20;3.37;;;;;;;13.66;40.62;102117.91;5067892;28;20039;-78
2021/04/22 09:52:23;;;;;;;11.35;2.88;;;;;;;14.10;41.10;102114.53;5070029;28;20032;-78
2021/04/22 09:54:54;;;;;;;8.10;2.47;;;;;;;13.74;40.06;102110.25;5067019;28;20563;-79
2021/04/22 09:57:25;;;;;;;16.00;3.30;;;;;;;13.70;39.03;102114.06;5085588;28;20033;-78
2021/04/22 09:59:51;;;;;;;17.95;3.05;;;;;;;13.82;38.77;102106.28;5071732;28;20043;-78
2021/04/22 10:02:17;;;;;;;15.50;2.83;;;;;;;13.94;40.74;102100.19;5063643;28;20028;-79
2021/04/22 10:04:45;;;;;;;14.38;2.75;;;;;;;14.06;42.23;102100.34;5070261;28;20051;-82
2021/04/22 10:07:33;;;;;;;8.48;2.50;;;;;;;14.21;40.25;102104.00;5063519;28;20024;-78
2021/04/22 10:10:13;;;;;;;9.40;2.30;;;;;;;14.15;38.64;102107.03;5065556;28;20033;-80
2021/04/22 10:12:38;;;;;;;15.05;2.50;;;;;;;14.00;40.07;102102.53;5082613;28;20036;-78
2021/04/22 10:15:17;;;;;;;9.52;2.60;;;;;;;14.20;39.67;102107.66;5061162;28;20101;-78
2021/04/22 10:18:11;;;;;;;11.13;2.80;;;;;;;13.95;39.79;102110.03;5069984;28;20032;-77
2021/04/22 10:20:39;;;;;;;17.08;3.28;;;;;;;14.14;40.05;102110.69;5062017;28;20571;-79
2021/04/22 10:23:07;;;;;;;12.35;2.65;;;;;;;14.20;40.35;102110.34;5060265;28;20061;-78
2021/04/22 10:25:36;;;;;;;13.57;2.97;;;;;;;14.25;39.62;102108.28;5063520;28;20036;-78
2021/04/22 10:28:13;;;;;;;15.38;3.00;;;;;;;14.05;38.50;102108.53;5066661;28;20198;-77
2021/04/22 10:30:43;;;;;;;11.85;2.97;;;;;;;13.90;40.48;102106.69;5067659;28;20036;-77
2021/04/22 10:33:11;;;;;;;13.73;3.25;;;;;;;14.11;39.91;102110.88;5059147;28;20037;-78
2021/04/22 10:35:39;;;;;;;13.73;2.75;;;;;;;14.29;38.97;102106.25;5064980;28;20128;-77
2021/04/22 10:38:05;;;;;;;13.90;2.83;;;;;;;14.46;39.07;102098.94;5071283;28;20042;-79
2021/04/22 10:40:33;;;;;;;11.15;2.97;;;;;;;14.68;40.86;102095.84;5064709;28;20413;-78
2021/04/22 10:43:01;;;;;;;19.33;3.55;;;;;;;14.78;40.27;102099.75;5069745;28;20055;-78
2021/04/22 10:45:28;;;;;;;10.52;2.80;;;;;;;14.43;39.56;102099.13;5062573;28;20124;-79
2021/04/22 10:47:54;;;;;;;11.77;3.65;;;;;;;14.56;42.18;102092.03;5068363;28;20051;-78
2021/04/22 10:50:25;;;;;;;21.98;3.15;;;;;;;14.58;38.37;102100.94;5066071;28;20029;-76
2021/04/22 10:52:52;;;;;;;14.07;2.47;;;;;;;14.54;37.68;102102.06;5067469;28;20039;-79
2021/04/22 10:55:38;;;;;;;12.23;3.05;;;;;;;14.41;38.12;102098.34;5068767;28;20028;-77
2021/04/22 10:58:25;;;;;;;12.90;2.53;;;;;;;14.58;37.66;102098.22;5065888;28;20036;-77
2021/04/22 11:00:59;;;;;;;11.05;3.13;;;;;;;14.64;36.79;102098.81;5067012;28;20063;-78
2021/04/22 11:04:01;;;;;;;15.68;3.38;;;;;;;14.67;39.36;102085.13;5072350;28;20028;-79
2021/04/22 11:06:33;;;;;;;10.50;2.55;;;;;;;14.82;38.40;102095.00;5067791;28;20032;-78
2021/04/22 11:09:11;;;;;;;11.90;3.60;;;;;;;14.72;39.22;102097.41;5067716;28;20078;-78
2021/04/22 11:11:37;;;;;;;8.90;2.95;;;;;;;14.95;38.79;102093.31;5069263;28;20069;-79
2021/04/22 11:14:14;;;;;;;17.05;3.92;;;;;;;15.05;39.77;102089.09;5066815;28;20133;-79
2021/04/22 11:16:51;;;;;;;13.30;2.90;;;;;;;14.94;40.24;102088.84;5068444;28;20067;-79
2021/04/22 11:19:17;;;;;;;13.27;3.58;;;;;;;14.86;39.78;102091.19;5069943;28;20047;-78
2021/04/22 11:21:55;;;;;;;12.02;3.42;;;;;;;14.75;37.59;102091.81;5064234;28;20040;-78
2021/04/22 11:24:28;;;;;;;12.32;3.47;;;;;;;14.63;37.69;102094.41;5062662;28;20036;-80